KBUR/BUR METAR and TAF weather

Enter ICAO airport designator
Station Type Date Time Source
KBUR METAR 2020/02/21 14:53 UTC NOAA

KBUR 211453Z 00000KT 10SM CLR 12/03 A3002 RMK AO2 SLP155 T01220033 53003 $


Station Type Date Time Source
KBUR Decoded METAR 2020/02/21 14:53 UTC NOAA

BURBANK-GLENDALE-PASADENA, CA, United States (KBUR) 34-12N 118-22W 217M
Feb 21, 2020 - 09:53 AM EST / 2020.02.21 1453 UTC
Wind: Calm:0
Visibility: 10 mile(s):0
Sky conditions: clear
Temperature: 54.0 F (12.2 C)
Dew Point: 37.9 F (3.3 C)
Relative Humidity: 54%
Pressure (altimeter): 30.02 in. Hg (1016 hPa)
Pressure tendency: 0.01 inches (0.3 hPa) higher than three hours ago
ob: KBUR 211453Z 00000KT 10SM CLR 12/03 A3002 RMK AO2 SLP155 T01220033 53003
cycle: 15

Station Type Date Time Source
KBUR TAF 2020/02/21 12:52 UTC NOAA

TAF KBUR 211149Z 2112/2212 VRB03KT P6SM SCT150 SCT200
FM211900 14005KT P6SM FEW100 SCT150
FM212200 17009KT P6SM SCT100 BKN150
FM220500 VRB03KT P6SM VCSH SCT050 BKN090
FM221000 17006KT P6SM -SHRA SCT020 OVC035

Example: see airport list